ePrivacy and GPDR Cookie Consent by Cookie Consent
EmailTwitter


Observations de surface / France / LFMP (07747)

Régions: Québec | Canada | États-Unis | Europe | France | UK | Ailleurs
Station
Affichage
Infos & localisation pour LFMP (07747) | Aide pour décoder les METARs

Observations prises le 2023-01-28 à 10H30 UTC à PERPIGNAN/RIVESA, FR (LFMP)

Etat du ciel: couvert.

Température: 5.0 Celsius

Point de rosée: -2.0 Celsius

Humidité relative: 61%

Facteur vent 0.

Vents: Nord-ouest à 28 km/h ou 15 noeuds.

Pression au niveau moyen de la mer: 102.10 kilopascals.

Visibilité horizontale: 6.21 milles terrestres ou 9.94 kilomètres.

Hauteur du plafond: 945 mètres ( 3100 pieds ).

Observation METAR:

LFMP 281030Z AUTO 31015KT 9999 BKN031 OVC060 05/M02 Q1021 TEMPO 31020G36KT=